Time;durP1;ratioP1;P1;durP2;ratioP2;P2;SDS_P1;SDS_P2;PMS_P1;PMS_P2;Temp;Humidity;BMP_temperature;BMP_pressure;BME280_temperature;BME280_humidity;BME280_pressure;Samples;Min_cycle;Max_cycle;Signal;HPM_P1;HPM_P2
2022/02/11 00:00:03;;;;;;;15.32;4.15;;;;;;;5.60;95.98;102223.88;10403949;28;20048;-77
2022/02/11 00:10:10;;;;;;;16.63;3.93;;;;;;;5.56;94.84;102217.06;10421094;28;20037;-77
2022/02/11 00:20:13;;;;;;;12.43;4.65;;;;;;;5.51;95.90;102224.66;10402989;28;20124;-77
2022/02/11 00:25:14;;;;;;;16.73;4.25;;;;;;;5.60;96.22;102219.34;10420939;28;20124;-77
2022/02/11 00:41:55;;;;;;;6.75;3.15;;;;;;;5.73;97.23;102223.66;10419306;28;20065;-78
2022/02/11 01:02:15;;;;;;;11.68;3.50;;;;;;;5.77;97.20;102217.88;10418505;28;20049;-78
2022/02/11 01:07:15;;;;;;;14.10;5.43;;;;;;;5.78;97.44;102216.06;10403821;28;20060;-77
2022/02/11 01:12:16;;;;;;;25.65;5.97;;;;;;;5.87;98.35;102223.31;10401059;28;20051;-77
2022/02/11 01:17:27;;;;;;;17.58;3.78;;;;;;;5.95;98.83;102239.63;10419806;28;20421;-78
2022/02/11 01:27:54;;;;;;;19.42;4.55;;;;;;;5.49;99.59;102221.25;10418931;28;20038;-78
2022/02/11 01:53:49;;;;;;;14.35;5.10;;;;;;;5.67;98.93;102243.00;10417145;28;20519;-78
2022/02/11 02:10:09;;;;;;;6.25;4.95;;;;;;;5.76;97.83;102263.69;10372974;28;20041;-79
2022/02/11 02:25:26;;;;;;;5.28;3.00;;;;;;;5.57;97.61;102265.28;10360651;28;20033;-76
2022/02/11 02:57:07;;;;;;;13.85;3.90;;;;;;;5.31;98.68;102298.88;10366553;28;20034;-77
2022/02/11 05:03:58;;;;;;;32.85;6.00;;;;;;;4.70;91.36;102510.56;10376660;28;20061;-77
2022/02/11 05:09:02;;;;;;;20.35;4.70;;;;;;;4.80;91.47;102509.72;10343317;28;20037;-77
2022/02/11 05:14:02;;;;;;;16.85;5.95;;;;;;;4.86;92.94;102522.66;10361154;28;20034;-77
2022/02/11 05:19:03;;;;;;;22.38;6.00;;;;;;;4.88;92.24;102536.84;10376766;28;20109;-77
2022/02/11 05:24:04;;;;;;;11.18;6.05;;;;;;;4.76;92.27;102543.16;10376727;28;20465;-77
2022/02/11 05:29:07;;;;;;;25.58;6.55;;;;;;;4.76;92.96;102551.22;10379191;28;20026;-75
2022/02/11 05:34:07;;;;;;;25.30;5.38;;;;;;;5.03;94.89;102576.88;10357839;28;20394;-76
2022/02/11 05:39:08;;;;;;;14.95;3.58;;;;;;;5.01;88.80;102584.19;10378393;28;20034;-74
2022/02/11 05:44:08;;;;;;;12.45;4.82;;;;;;;4.60;89.60;102601.66;10351634;28;20041;-74
2022/02/11 05:49:08;;;;;;;15.55;5.90;;;;;;;4.52;92.78;102610.28;10364223;28;20042;-73
2022/02/11 05:54:09;;;;;;;23.23;4.55;;;;;;;4.63;93.59;102604.97;10343203;28;20084;-73
2022/02/11 05:59:09;;;;;;;22.40;5.63;;;;;;;4.37;92.21;102615.00;10374381;28;20113;-75
2022/02/11 06:04:10;;;;;;;16.20;5.57;;;;;;;4.18;92.44;102625.38;10375196;28;20065;-77
2022/02/11 06:09:10;;;;;;;10.95;4.47;;;;;;;4.16;93.58;102621.94;10361033;28;20482;-78
2022/02/11 06:14:11;;;;;;;33.95;7.85;;;;;;;4.40;94.93;102617.44;10320816;28;20054;-78
2022/02/11 06:19:11;;;;;;;21.73;6.60;;;;;;;4.56;94.79;102627.00;10376702;28;20392;-76
2022/02/11 06:24:12;;;;;;;26.25;5.13;;;;;;;4.52;94.71;102641.63;10374896;28;20029;-76
2022/02/11 06:29:13;;;;;;;40.47;9.40;;;;;;;4.54;93.26;102655.78;10375473;28;20042;-77
2022/02/11 06:34:13;;;;;;;20.98;5.60;;;;;;;4.47;92.39;102667.91;10376443;28;20438;-76
2022/02/11 06:39:14;;;;;;;21.33;6.65;;;;;;;4.35;92.48;102675.06;10361214;28;20041;-77
2022/02/11 06:44:14;;;;;;;14.02;5.43;;;;;;;4.36;93.29;102688.34;10375691;28;20045;-77
2022/02/11 06:49:14;;;;;;;35.85;5.00;;;;;;;4.54;93.61;102709.44;10377069;28;20140;-77
2022/02/11 06:54:15;;;;;;;31.45;6.82;;;;;;;4.74;94.54;102734.78;10358744;28;20045;-77
2022/02/11 06:59:15;;;;;;;20.70;6.20;;;;;;;4.84;95.51;102742.03;10381078;28;20038;-78
2022/02/11 07:04:18;;;;;;;17.35;5.22;;;;;;;4.69;93.93;102748.56;10381042;28;20390;-78
2022/02/11 07:09:19;;;;;;;30.88;6.00;;;;;;;4.56;91.23;102774.56;10382154;28;20037;-77
2022/02/11 07:14:19;;;;;;;8.55;3.95;;;;;;;4.46;91.21;102776.19;10365900;28;20030;-78
2022/02/11 07:19:20;;;;;;;17.83;5.15;;;;;;;4.41;91.97;102782.78;10368743;28;20116;-77
2022/02/11 07:24:20;;;;;;;15.93;5.32;;;;;;;4.42;90.86;102792.53;10392628;28;20106;-78
2022/02/11 07:29:21;;;;;;;12.55;5.45;;;;;;;4.36;90.95;102794.78;10392776;28;20073;-77
2022/02/11 07:34:21;;;;;;;21.60;5.32;;;;;;;4.31;91.42;102811.22;10372413;28;20061;-77
2022/02/11 07:39:23;;;;;;;25.65;5.70;;;;;;;4.55;91.91;102822.00;10372923;28;20127;-77
2022/02/11 07:44:24;;;;;;;12.60;4.13;;;;;;;4.73;90.98;102843.97;10373179;28;20148;-77
2022/02/11 07:49:24;;;;;;;15.98;4.40;;;;;;;5.26;89.79;102852.56;10391680;28;20457;-78
2022/02/11 07:54:27;;;;;;;21.60;5.00;;;;;;;5.94;88.85;102860.91;10389354;28;20474;-77
2022/02/11 07:59:27;;;;;;;8.25;3.60;;;;;;;5.85;88.38;102869.66;10389938;28;20070;-77
2022/02/11 08:04:28;;;;;;;26.48;5.88;;;;;;;5.38;88.20;102883.03;10391301;28;20065;-77
2022/02/11 08:09:29;;;;;;;21.40;5.55;;;;;;;5.35;89.08;102902.06;10388712;28;20071;-77
2022/02/11 08:14:30;;;;;;;22.67;7.05;;;;;;;5.59;91.40;102912.81;10374720;28;20121;-77
2022/02/11 08:19:30;;;;;;;18.00;5.03;;;;;;;5.53;88.97;102940.16;10360007;28;20046;-77
2022/02/11 08:24:31;;;;;;;24.60;5.53;;;;;;;5.31;84.97;102951.63;10388781;28;20037;-76
2022/02/11 08:29:35;;;;;;;20.63;4.57;;;;;;;6.04;83.95;102953.34;10387222;28;20385;-77
2022/02/11 08:34:35;;;;;;;7.10;4.25;;;;;;;7.27;81.44;102962.47;10391751;28;20034;-77
2022/02/11 08:39:38;;;;;;;25.73;4.80;;;;;;;8.00;75.11;102959.03;10384308;28;20068;-77
2022/02/11 08:44:39;;;;;;;29.30;5.47;;;;;;;8.52;72.19;102972.63;10363816;28;20487;-77
2022/02/11 08:49:39;;;;;;;15.20;2.92;;;;;;;8.83;67.12;102993.28;10379453;28;20121;-76
2022/02/11 08:54:40;;;;;;;10.13;3.53;;;;;;;9.44;70.76;102992.38;10360879;28;20359;-77
2022/02/11 08:59:40;;;;;;;6.55;3.10;;;;;;;10.05;74.44;103006.69;10360068;28;20041;-76
2022/02/11 09:04:41;;;;;;;3.53;2.13;;;;;;;10.07;65.69;103023.66;10359716;28;20081;-77
2022/02/11 09:09:41;;;;;;;2.72;2.45;;;;;;;10.37;66.28;103034.38;10359320;28;20041;-76
2022/02/11 09:14:41;;;;;;;5.80;3.03;;;;;;;10.73;64.31;103045.44;10359020;28;20069;-76
2022/02/11 09:19:42;;;;;;;10.52;3.22;;;;;;;10.63;70.07;103045.44;10377230;28;20113;-77
2022/02/11 09:24:43;;;;;;;16.25;3.78;;;;;;;10.15;71.02;103057.13;10360431;28;20034;-77
2022/02/11 09:29:43;;;;;;;7.00;3.15;;;;;;;10.47;69.05;103056.88;10360036;28;20121;-77
2022/02/11 09:34:44;;;;;;;27.70;4.63;;;;;;;11.17;69.70;103072.84;10376025;28;20033;-77
2022/02/11 09:39:45;;;;;;;8.52;2.75;;;;;;;11.72;67.80;103086.44;10376051;28;20093;-77
2022/02/11 09:44:46;;;;;;;15.82;3.88;;;;;;;11.44;65.81;103093.72;10375230;28;20389;-77
2022/02/11 09:49:47;;;;;;;12.80;3.50;;;;;;;10.84;70.89;103099.44;10356950;28;20112;-77
2022/02/11 09:54:47;;;;;;;12.70;3.92;;;;;;;10.64;65.57;103120.31;10375680;28;20036;-75
2022/02/11 09:59:48;;;;;;;13.48;2.55;;;;;;;11.05;61.85;103107.41;10374978;28;20096;-77
2022/02/11 10:04:56;;;;;;;11.00;3.28;;;;;;;12.07;65.57;103118.25;10375265;28;20131;-78
2022/02/11 10:09:56;;;;;;;10.30;2.90;;;;;;;12.50;56.22;103123.94;10374355;28;20033;-76
2022/02/11 10:14:56;;;;;;;6.68;1.70;;;;;;;11.90;61.89;103137.22;10341786;28;20049;-77
2022/02/11 10:19:57;;;;;;;12.85;3.42;;;;;;;11.57;63.56;103155.78;10357483;28;20044;-76
2022/02/11 10:24:58;;;;;;;8.70;3.55;;;;;;;11.75;64.31;103142.28;10357013;28;20057;-76
2022/02/11 10:30:06;;;;;;;5.15;3.08;;;;;;;12.22;61.49;103153.91;10358315;28;20037;-77
2022/02/11 10:35:07;;;;;;;7.90;3.70;;;;;;;12.71;63.17;103161.69;10344088;28;20090;-76
2022/02/11 10:40:08;;;;;;;8.57;2.42;;;;;;;12.88;64.18;103173.53;10363890;28;20053;-77
2022/02/11 10:45:37;;;;;;;16.10;3.22;;;;;;;12.91;65.28;103184.97;10381689;28;20038;-76
2022/02/11 10:50:38;;;;;;;5.70;2.72;;;;;;;12.87;60.38;103183.56;10375357;28;20045;-76
2022/02/11 10:55:51;;;;;;;8.98;3.13;;;;;;;11.84;58.07;103203.81;10360551;28;20374;-76
2022/02/11 11:00:52;;;;;;;6.55;3.78;;;;;;;12.85;66.58;103203.78;10381849;28;20432;-76
2022/02/11 11:05:52;;;;;;;11.43;3.90;;;;;;;13.07;64.14;103197.84;10381358;28;20147;-76
2022/02/11 11:10:53;;;;;;;24.30;3.25;;;;;;;13.30;56.65;103210.97;10347727;28;20033;-77
2022/02/11 11:15:55;;;;;;;20.15;4.32;;;;;;;13.81;61.85;103211.97;10363614;28;20137;-77
2022/02/11 11:20:56;;;;;;;10.57;2.40;;;;;;;14.25;64.96;103219.97;10347895;28;20029;-77
2022/02/11 11:26:02;;;;;;;17.85;4.00;;;;;;;14.10;64.04;103223.34;10380944;28;20453;-76
2022/02/11 11:31:18;;;;;;;14.85;3.08;;;;;;;11.77;63.13;103224.41;10364408;28;20076;-76
2022/02/11 11:36:20;;;;;;;7.25;2.40;;;;;;;12.41;62.89;103228.13;10381146;28;20088;-76
2022/02/11 11:41:24;;;;;;;4.25;1.98;;;;;;;11.99;64.33;103237.63;10363589;28;20033;-77
2022/02/11 11:46:29;;;;;;;6.95;3.40;;;;;;;12.07;64.16;103240.47;10363925;28;20091;-76
2022/02/11 11:51:31;;;;;;;16.92;2.53;;;;;;;11.97;66.53;103247.81;10366367;28;20025;-76
2022/02/11 11:56:36;;;;;;;7.30;2.67;;;;;;;11.88;63.74;103237.84;10362901;28;20022;-77
2022/02/11 12:01:53;;;;;;;9.05;2.05;;;;;;;11.34;71.10;103252.94;10361537;28;20041;-76
2022/02/11 12:06:56;;;;;;;9.82;2.70;;;;;;;10.35;72.40;103249.47;10362761;28;20078;-78
2022/02/11 12:12:06;;;;;;;2.78;2.03;;;;;;;9.66;71.01;103255.53;10362209;28;20113;-77
2022/02/11 12:17:17;;;;;;;8.80;2.35;;;;;;;10.21;68.29;103254.25;10361948;28;20108;-76
2022/02/11 12:22:18;;;;;;;3.28;1.88;;;;;;;11.83;68.95;103251.81;10363399;28;20030;-76
2022/02/11 12:27:29;;;;;;;7.45;2.78;;;;;;;11.52;71.52;103258.47;10327972;28;20389;-78
2022/02/11 12:32:33;;;;;;;10.95;2.22;;;;;;;12.39;66.92;103268.19;10361520;28;20030;-77
2022/02/11 12:37:33;;;;;;;9.65;2.35;;;;;;;12.86;58.79;103259.84;10377873;28;20108;-78
2022/02/11 12:42:35;;;;;;;7.18;2.40;;;;;;;12.30;61.85;103278.09;10360568;28;20081;-77
2022/02/11 12:47:36;;;;;;;5.10;2.42;;;;;;;11.31;68.73;103283.94;10346149;28;20082;-79
2022/02/11 12:52:37;;;;;;;8.10;2.92;;;;;;;10.44;71.96;103273.88;10343812;28;20041;-76
2022/02/11 12:57:39;;;;;;;4.22;1.88;;;;;;;9.40;69.71;103293.81;10377482;28;20037;-77
2022/02/11 13:02:40;;;;;;;4.47;2.78;;;;;;;8.29;73.28;103299.38;10361223;28;20029;-75
2022/02/11 13:07:45;;;;;;;5.78;1.17;;;;;;;7.48;75.76;103316.59;10361901;28;20030;-77
2022/02/11 13:12:46;;;;;;;4.75;1.90;;;;;;;6.99;78.13;103323.88;10359519;28;20422;-77
2022/02/11 13:17:47;;;;;;;9.98;2.55;;;;;;;6.33;79.43;103333.22;10358990;28;20069;-77
2022/02/11 13:22:49;;;;;;;14.52;2.40;;;;;;;5.86;81.13;103340.06;10376420;28;20026;-78
2022/02/11 13:27:53;;;;;;;3.55;2.30;;;;;;;5.47;84.25;103320.34;10376256;28;20065;-78
2022/02/11 13:32:55;;;;;;;13.65;3.03;;;;;;;5.66;81.99;103314.56;10358479;28;20025;-77
2022/02/11 13:37:59;;;;;;;18.73;2.33;;;;;;;6.11;80.96;103311.50;10358324;28;20033;-77
2022/02/11 13:43:02;;;;;;;10.23;2.83;;;;;;;6.38;81.03;103317.59;10358523;28;20377;-76
2022/02/11 13:48:09;;;;;;;12.88;3.25;;;;;;;6.52;80.68;103328.22;10376518;28;20046;-76
2022/02/11 13:53:11;;;;;;;10.18;3.47;;;;;;;7.16;80.89;103330.69;10359675;28;20093;-76
2022/02/11 13:58:15;;;;;;;4.68;2.60;;;;;;;7.92;83.03;103317.66;10357684;28;20109;-77
2022/02/11 14:03:34;;;;;;;14.50;3.40;;;;;;;8.46;82.99;103310.72;10375805;28;20157;-77
2022/02/11 14:08:41;;;;;;;10.40;3.30;;;;;;;9.43;83.70;103309.78;10375038;28;20045;-76
2022/02/11 14:13:42;;;;;;;15.88;3.25;;;;;;;10.04;84.58;103305.44;10375022;28;20033;-77
2022/02/11 14:18:43;;;;;;;4.13;1.95;;;;;;;9.63;84.54;103305.34;10372051;28;20393;-76
2022/02/11 14:23:43;;;;;;;6.32;2.53;;;;;;;8.31;83.19;103329.81;10374982;28;20030;-77
2022/02/11 14:28:44;;;;;;;13.60;4.18;;;;;;;7.66;83.59;103342.13;10357698;28;20026;-77
2022/02/11 14:33:44;;;;;;;6.65;2.20;;;;;;;7.65;83.98;103344.94;10366447;28;20033;-78
2022/02/11 14:38:45;;;;;;;14.45;2.90;;;;;;;8.84;85.29;103335.44;10382816;28;20085;-78
2022/02/11 14:43:45;;;;;;;13.40;3.05;;;;;;;9.65;85.14;103333.16;10382931;28;20589;-77
2022/02/11 14:48:45;;;;;;;11.25;1.80;;;;;;;9.57;86.00;103346.47;10381995;28;20121;-77
2022/02/11 14:53:46;;;;;;;2.78;2.10;;;;;;;9.02;84.23;103343.00;10381427;28;20061;-78
2022/02/11 14:58:46;;;;;;;3.88;1.98;;;;;;;8.67;82.57;103348.59;10364092;28;20030;-78
2022/02/11 15:03:47;;;;;;;12.63;3.05;;;;;;;8.44;83.03;103348.63;10381693;28;20145;-77
2022/02/11 15:08:47;;;;;;;8.68;2.15;;;;;;;8.27;82.88;103349.09;10364499;28;20034;-76
2022/02/11 15:13:47;;;;;;;5.88;2.30;;;;;;;7.98;83.61;103351.41;10381643;28;20058;-78
2022/02/11 15:18:48;;;;;;;9.18;3.50;;;;;;;7.60;83.13;103350.69;10383922;28;20033;-77
2022/02/11 15:23:48;;;;;;;13.15;2.55;;;;;;;7.36;83.58;103358.81;10386276;28;20125;-76
2022/02/11 15:28:49;;;;;;;7.28;2.30;;;;;;;7.10;84.00;103358.06;10382665;28;20038;-77
2022/02/11 15:33:50;;;;;;;11.23;3.33;;;;;;;6.85;83.52;103363.56;10369979;28;20040;-77
2022/02/11 15:38:50;;;;;;;8.88;2.50;;;;;;;6.39;83.48;103359.69;10381633;28;20410;-76
2022/02/11 15:43:51;;;;;;;7.07;1.85;;;;;;;6.09;83.74;103368.06;10364158;28;20492;-76
2022/02/11 15:48:51;;;;;;;5.47;2.33;;;;;;;5.75;83.45;103356.97;10363506;28;20092;-77
2022/02/11 15:53:51;;;;;;;18.30;2.90;;;;;;;5.49;83.02;103368.63;10364689;28;20104;-77
2022/02/11 15:58:52;;;;;;;17.30;3.30;;;;;;;5.29;83.17;103362.75;10362663;28;20401;-76
2022/02/11 16:03:52;;;;;;;4.05;2.60;;;;;;;5.11;82.99;103369.38;10346618;28;20081;-77
2022/02/11 16:08:53;;;;;;;10.98;3.13;;;;;;;4.95;83.33;103374.03;10362767;28;20038;-76
2022/02/11 16:13:53;;;;;;;10.45;3.88;;;;;;;4.82;82.93;103377.50;10362317;28;20064;-76
2022/02/11 16:18:54;;;;;;;14.07;2.72;;;;;;;4.72;82.73;103378.16;10380559;28;20066;-77
2022/02/11 16:23:54;;;;;;;14.20;4.07;;;;;;;4.56;83.01;103378.28;10362243;28;20034;-76
2022/02/11 16:28:54;;;;;;;10.07;4.00;;;;;;;4.50;83.00;103384.03;10380082;28;20493;-77
2022/02/11 16:33:55;;;;;;;13.20;3.50;;;;;;;4.37;82.87;103374.09;10344963;28;20117;-77
2022/02/11 16:38:56;;;;;;;9.50;1.67;;;;;;;4.26;82.66;103381.09;10379222;28;20026;-76
2022/02/11 16:43:56;;;;;;;4.90;2.78;;;;;;;4.10;82.82;103390.06;10362725;28;20057;-77
2022/02/11 16:48:56;;;;;;;8.85;3.15;;;;;;;3.98;82.38;103393.50;10361573;28;20088;-76
2022/02/11 16:53:57;;;;;;;17.50;4.47;;;;;;;3.81;82.64;103397.19;10377775;28;20068;-76
2022/02/11 16:58:57;;;;;;;6.07;3.63;;;;;;;3.70;83.12;103402.31;10360000;28;20072;-76
2022/02/11 17:03:59;;;;;;;7.38;3.85;;;;;;;3.80;84.28;103410.69;10360211;28;20069;-76
2022/02/11 17:08:59;;;;;;;6.13;3.03;;;;;;;3.91;84.25;103421.63;10361950;28;20038;-77
2022/02/11 17:14:00;;;;;;;3.10;2.45;;;;;;;3.93;84.11;103425.94;10379917;28;20529;-76
2022/02/11 17:19:01;;;;;;;8.57;4.18;;;;;;;3.91;83.83;103419.81;10377992;28;20508;-77
2022/02/11 17:24:01;;;;;;;9.95;3.47;;;;;;;3.88;83.74;103419.13;10378116;28;20049;-78
2022/02/11 17:29:02;;;;;;;10.60;3.72;;;;;;;3.84;83.71;103431.00;10376296;28;20484;-77
2022/02/11 17:34:02;;;;;;;8.13;3.78;;;;;;;3.72;83.24;103416.50;10380574;28;20042;-77
2022/02/11 17:39:04;;;;;;;6.80;2.30;;;;;;;3.50;82.98;103417.75;10376572;28;20034;-76
2022/02/11 17:44:05;;;;;;;9.05;3.13;;;;;;;3.34;82.83;103424.97;10376137;28;20535;-77
2022/02/11 17:49:05;;;;;;;17.40;2.90;;;;;;;3.19;82.86;103418.69;10359190;28;20097;-77
2022/02/11 17:54:05;;;;;;;4.00;3.03;;;;;;;3.03;82.70;103418.69;10376609;28;20034;-75
2022/02/11 17:59:08;;;;;;;4.20;3.20;;;;;;;2.88;83.03;103421.34;10395458;28;20472;-77
2022/02/11 18:04:09;;;;;;;4.82;2.33;;;;;;;2.75;83.00;103419.34;10358035;28;20056;-77
2022/02/11 18:09:10;;;;;;;4.32;3.15;;;;;;;2.70;83.27;103423.22;10358450;28;20056;-77
2022/02/11 18:14:10;;;;;;;4.30;3.08;;;;;;;2.52;82.60;103425.06;10357780;28;20033;-76
2022/02/11 18:19:10;;;;;;;4.80;3.47;;;;;;;2.43;83.15;103430.94;10374911;28;20033;-77
2022/02/11 18:24:11;;;;;;;8.38;3.85;;;;;;;2.32;83.08;103423.47;10375432;28;20080;-77
2022/02/11 18:29:11;;;;;;;11.52;4.75;;;;;;;2.23;83.97;103424.81;10375419;28;20034;-77
2022/02/11 18:34:13;;;;;;;12.25;4.38;;;;;;;2.22;84.08;103430.28;10357872;28;20156;-76
2022/02/11 18:39:17;;;;;;;12.75;4.10;;;;;;;2.10;83.48;103432.63;10374468;28;20072;-78
2022/02/11 18:44:17;;;;;;;18.73;6.05;;;;;;;1.98;83.26;103446.66;10357927;28;20041;-77
2022/02/11 18:49:18;;;;;;;12.23;3.90;;;;;;;1.86;83.70;103448.13;10358413;28;20117;-77
2022/02/11 18:54:18;;;;;;;11.75;3.65;;;;;;;1.79;83.22;103445.88;10375146;28;20391;-77
2022/02/11 19:04:37;;;;;;;13.55;4.90;;;;;;;1.97;83.01;103444.03;10375355;28;20058;-75
2022/02/11 19:09:38;;;;;;;9.13;4.15;;;;;;;1.89;83.07;103433.75;10384249;28;20042;-78
2022/02/11 19:14:38;;;;;;;18.63;4.82;;;;;;;1.92;82.81;103430.06;10360839;28;20072;-77
2022/02/11 19:19:39;;;;;;;9.02;4.32;;;;;;;1.93;83.37;103435.31;10383133;28;20037;-77
2022/02/11 19:24:39;;;;;;;26.27;7.88;;;;;;;1.86;83.95;103436.59;10364585;28;20045;-76
2022/02/11 19:29:40;;;;;;;18.38;5.68;;;;;;;1.77;84.68;103447.72;10382079;28;20405;-77
2022/02/11 19:34:40;;;;;;;12.88;4.78;;;;;;;1.83;85.18;103437.59;10382219;28;20150;-77
2022/02/11 19:39:42;;;;;;;20.17;9.05;;;;;;;1.70;84.35;103447.19;10383212;28;20053;-74
2022/02/11 19:44:42;;;;;;;21.90;15.68;;;;;;;1.65;84.37;103438.53;10380592;28;20120;-78
2022/02/11 19:49:43;;;;;;;13.43;9.23;;;;;;;1.54;85.25;103435.53;10371189;28;20492;-74
2022/02/11 19:54:47;;;;;;;18.73;10.43;;;;;;;1.52;85.03;103448.94;10347880;28;20100;-78
2022/02/11 19:59:48;;;;;;;32.67;11.32;;;;;;;1.53;84.68;103448.03;10346883;28;20420;-78
2022/02/11 20:04:48;;;;;;;20.48;13.15;;;;;;;1.38;84.08;103446.97;10362179;28;20141;-77
2022/02/11 20:09:48;;;;;;;25.90;11.30;;;;;;;1.31;84.21;103440.22;10379065;28;20038;-78
2022/02/11 20:14:49;;;;;;;21.15;10.07;;;;;;;1.22;84.76;103451.31;10362957;28;20473;-77
2022/02/11 20:19:49;;;;;;;19.83;8.45;;;;;;;1.19;84.52;103447.94;10380506;28;20385;-78
2022/02/11 20:24:50;;;;;;;18.95;7.95;;;;;;;1.28;84.92;103448.38;10388347;28;20037;-78
2022/02/11 20:29:50;;;;;;;13.43;6.40;;;;;;;1.32;84.45;103446.41;10380439;28;20385;-77
2022/02/11 20:34:50;;;;;;;15.57;8.02;;;;;;;1.31;83.73;103439.34;10378569;28;20065;-78
2022/02/11 20:39:51;;;;;;;18.08;8.23;;;;;;;1.15;84.34;103444.56;10362293;28;20038;-75
2022/02/11 20:44:51;;;;;;;18.80;8.98;;;;;;;1.00;83.97;103447.94;10379295;28;20033;-78
2022/02/11 20:55:10;;;;;;;16.35;7.30;;;;;;;0.95;84.25;103440.16;10377907;28;20453;-79
2022/02/11 21:00:12;;;;;;;9.13;7.72;;;;;;;0.92;83.94;103434.94;10377152;28;20042;-78
2022/02/11 21:05:13;;;;;;;24.58;9.80;;;;;;;0.87;84.72;103431.66;10359746;28;20141;-78
2022/02/11 21:10:16;;;;;;;25.33;7.15;;;;;;;0.83;84.21;103425.59;10378078;28;20033;-77
2022/02/11 21:15:16;;;;;;;30.75;10.70;;;;;;;0.84;85.07;103416.66;10360117;28;20038;-78
2022/02/11 21:20:17;;;;;;;33.13;11.60;;;;;;;0.84;84.79;103418.47;10359945;28;20034;-77
2022/02/11 21:25:19;;;;;;;21.85;9.75;;;;;;;0.90;84.82;103421.69;10294921;28;20449;-77
2022/02/11 21:30:21;;;;;;;21.00;9.57;;;;;;;0.90;84.51;103426.19;10361073;28;20030;-77
2022/02/11 21:35:21;;;;;;;17.27;7.65;;;;;;;0.83;84.61;103424.72;10381276;28;20034;-77
2022/02/11 21:40:22;;;;;;;20.17;8.43;;;;;;;0.83;84.23;103422.03;10358873;28;20073;-78
2022/02/11 21:45:23;;;;;;;17.77;9.65;;;;;;;0.81;84.12;103418.59;10377089;28;20034;-77
2022/02/11 21:50:23;;;;;;;17.55;8.90;;;;;;;0.73;83.20;103426.09;10358920;28;20381;-77
2022/02/11 21:55:23;;;;;;;19.38;7.70;;;;;;;0.75;83.59;103419.75;10358453;28;20121;-77
2022/02/11 22:00:24;;;;;;;11.00;6.65;;;;;;;0.82;84.10;103413.19;10357452;28;20095;-78
2022/02/11 22:05:24;;;;;;;20.27;6.45;;;;;;;0.69;83.77;103412.88;10384437;28;20049;-77
2022/02/11 22:10:26;;;;;;;21.85;7.85;;;;;;;0.71;84.56;103406.66;10308923;28;20061;-78
2022/02/11 22:15:27;;;;;;;17.55;7.30;;;;;;;0.66;84.27;103409.50;10376916;28;20108;-78
2022/02/11 22:20:28;;;;;;;17.70;6.70;;;;;;;0.47;83.93;103398.81;10376466;28;20042;-77
2022/02/11 22:25:28;;;;;;;13.85;7.75;;;;;;;0.32;84.07;103404.84;10375428;28;20033;-77
2022/02/11 22:30:29;;;;;;;18.08;8.30;;;;;;;0.28;84.76;103400.59;10376530;28;20378;-78
2022/02/11 22:35:29;;;;;;;26.75;7.65;;;;;;;0.17;84.14;103409.94;10342045;28;20041;-78
2022/02/11 22:40:29;;;;;;;16.85;8.63;;;;;;;0.29;84.87;103405.88;10377478;28;20022;-78
2022/02/11 22:45:30;;;;;;;12.05;7.72;;;;;;;0.26;84.02;103410.47;10375565;28;20030;-78
2022/02/11 22:55:50;;;;;;;15.93;8.05;;;;;;;0.18;83.91;103397.47;10382686;28;20117;-79
2022/02/11 23:00:57;;;;;;;18.98;6.95;;;;;;;0.17;84.60;103396.63;10383744;28;20097;-79
2022/02/11 23:05:57;;;;;;;23.67;7.40;;;;;;;0.11;84.71;103380.91;10365226;28;20129;-79
2022/02/11 23:10:58;;;;;;;16.48;8.07;;;;;;;0.05;84.64;103381.16;10382985;28;20050;-78
2022/02/11 23:15:59;;;;;;;6.35;4.50;;;;;;;0.03;84.37;103376.84;10383322;28;20069;-78
2022/02/11 23:21:00;;;;;;;21.00;6.22;;;;;;;-0.02;84.49;103379.72;10348380;28;20176;-78
2022/02/11 23:26:01;;;;;;;12.40;7.88;;;;;;;-0.06;85.12;103380.78;10382171;28;20121;-79
2022/02/11 23:31:01;;;;;;;16.15;7.18;;;;;;;0.00;85.84;103369.88;10365174;28;20045;-78
2022/02/11 23:36:02;;;;;;;19.67;7.63;;;;;;;0.09;86.28;103363.25;10381463;28;20034;-78
2022/02/11 23:41:02;;;;;;;19.02;6.93;;;;;;;0.23;86.80;103353.72;10381988;28;20049;-77
2022/02/11 23:46:03;;;;;;;9.70;7.00;;;;;;;0.27;86.87;103353.56;10363139;28;20418;-79
2022/02/11 23:51:03;;;;;;;16.10;6.35;;;;;;;0.21;86.08;103346.72;10362926;28;20091;-78
2022/02/11 23:56:04;;;;;;;15.05;6.30;;;;;;;0.18;86.35;103347.72;10363890;28;20030;-78
